No particular awareness of the weather is required.    There are no Weather-warnings


Meteo18 Weather Cam more information Meteo18 Weather Cam


Thunder radar more information blitzortung!


Rain radar more information rain snow radar


Visit our other weather sites:

Template documentation
and downloads

And another site



Weather Underground History page Text

Daily Summary for January 30, 2017 Units:  Both    English   Metric
« Previous Day
Next Day »
Daily Weekly Monthly Yearly Custom
  High: Low: Average:
Temperature: 49.3 °F /  9.6 °C 39.2 °F /  4.0 °C 45 °F /  7.2 °C
Dew Point: 48.7 °F /  9.3 °C 35.8 °F /  2.1 °C 43.5 °F /  6.4 °C
Humidity: 98 % 84 % 95 %
Wind Speed: 10 mph /  16.1 km/h - 3.6 mph /  5.8 km/h
Wind Gust: 13 mph /  20.9 km/h - -
Wind:- - SSW
Pressure: 30.1 in /  1018.8 hPa 30 in /  1015.8 hPa -
Precipitation: 0.2 in /  5.1 mm    
Historical Graphs
 
 
Tabular Data for January 30, 2017
Time Temperature Dew Point Pressure Wind Wind Speed Wind Gust Humidity Rainfall Rate (Hourly)
00:02 40.3 °F /  4.6 °C 37 °F /  2.8 °C 30.1 in /  1018.8 hPa Calm   3 mph /  4.8 km/h 88 % 0 in /  0.0 mm
00:07 40.3 °F /  4.6 °C 37 °F /  2.8 °C 30.1 in /  1018.8 hPa Calm   3 mph /  4.8 km/h 88 % 0 in /  0.0 mm
00:12 40.3 °F /  4.6 °C 37.2 °F /  2.9 °C 30.1 in /  1018.8 hPa Calm   3 mph /  4.8 km/h 89 % 0 in /  0.0 mm
00:17 40.3 °F /  4.6 °C 37.2 °F /  2.9 °C 30.1 in /  1018.8 hPa Calm   1 mph /  1.6 km/h 89 % 0 in /  0.0 mm
00:22 40.3 °F /  4.6 °C 37 °F /  2.8 °C 30.1 in /  1018.8 hPa Calm   1 mph /  1.6 km/h 88 % 0 in /  0.0 mm
00:32 39.9 °F /  4.4 °C 36.9 °F /  2.7 °C 30.1 in /  1018.8 hPa Calm   1 mph /  1.6 km/h 89 % 0 in /  0.0 mm
00:42 39.7 °F /  4.3 °C 36.7 °F /  2.6 °C 30.1 in /  1018.8 hPa Calm     89 % 0 in /  0.0 mm
00:47 39.6 °F /  4.2 °C 36.5 °F /  2.5 °C 30.1 in /  1018.8 hPa Calm     89 % 0 in /  0.0 mm
00:52 39.7 °F /  4.3 °C 36.7 °F /  2.6 °C 30.1 in /  1018.5 hPa Calm     89 % 0 in /  0.0 mm
00:57 39.7 °F /  4.3 °C 36.7 °F /  2.6 °C 30.1 in /  1018.5 hPa Calm   1 mph /  1.6 km/h 89 % 0 in /  0.0 mm
01:02 39.7 °F /  4.3 °C 36.7 °F /  2.6 °C 30.1 in /  1018.5 hPa Calm   1 mph /  1.6 km/h 89 % 0 in /  0.0 mm
01:12 39.6 °F /  4.2 °C 36.3 °F /  2.4 °C 30.1 in /  1018.5 hPa Calm   1 mph /  1.6 km/h 88 % 0 in /  0.0 mm
01:17 39.4 °F /  4.1 °C 36.1 °F /  2.3 °C 30.1 in /  1018.5 hPa Calm   1 mph /  1.6 km/h 88 % 0 in /  0.0 mm
01:22 39.4 °F /  4.1 °C 36.1 °F /  2.3 °C 30.1 in /  1018.2 hPa SSW 1 mph /  1.6 km/h 3 mph /  4.8 km/h 88 % 0 in /  0.0 mm
01:27 39.2 °F /  4.0 °C 36 °F /  2.2 °C 30.1 in /  1018.2 hPa SSW 1 mph /  1.6 km/h 3 mph /  4.8 km/h 88 % 0 in /  0.0 mm
01:32 39.4 °F /  4.1 °C 36.5 °F /  2.5 °C 30.1 in /  1018.2 hPa SW 2 mph /  3.2 km/h 3 mph /  4.8 km/h 89 % 0 in /  0.0 mm
01:37 39.7 °F /  4.3 °C 36.5 °F /  2.5 °C 30.1 in /  1018.2 hPa SW 2 mph /  3.2 km/h 2 mph /  3.2 km/h 88 % 0 in /  0.0 mm
01:42 40.3 °F /  4.6 °C 36.7 °F /  2.6 °C 30.1 in /  1018.2 hPa SW 3 mph /  4.8 km/h 3 mph /  4.8 km/h 87 % 0 in /  0.0 mm
01:47 40.6 °F /  4.8 °C 36.9 °F /  2.7 °C 30.1 in /  1018.2 hPa SSW 2 mph /  3.2 km/h 3 mph /  4.8 km/h 86 % 0 in /  0.0 mm
01:52 40.6 °F /  4.8 °C 36.5 °F /  2.5 °C 30.1 in /  1018.2 hPa SSW 2 mph /  3.2 km/h 3 mph /  4.8 km/h 85 % 0 in /  0.0 mm
01:57 40.8 °F /  4.9 °C 36.7 °F /  2.6 °C 30.1 in /  1018.2 hPa SSW 1 mph /  1.6 km/h 3 mph /  4.8 km/h 85 % 0 in /  0.0 mm
02:02 40.8 °F /  4.9 °C 36.7 °F /  2.6 °C 30.1 in /  1018.2 hPa SSW 1 mph /  1.6 km/h 3 mph /  4.8 km/h 85 % 0 in /  0.0 mm
02:12 40.6 °F /  4.8 °C 36.5 °F /  2.5 °C 30.1 in /  1018.2 hPa SSW 1 mph /  1.6 km/h 3 mph /  4.8 km/h 85 % 0 in /  0.0 mm
02:17 40.8 °F /  4.9 °C 36.7 °F /  2.6 °C 30.1 in /  1017.8 hPa SSW 3 mph /  4.8 km/h 3 mph /  4.8 km/h 85 % 0 in /  0.0 mm
02:22 40.8 °F /  4.9 °C 36.3 °F /  2.4 °C 30.1 in /  1017.8 hPa SSW 3 mph /  4.8 km/h 4 mph /  6.4 km/h 84 % 0 in /  0.0 mm
02:27 40.8 °F /  4.9 °C 36.3 °F /  2.4 °C 30.1 in /  1017.8 hPa SSW 3 mph /  4.8 km/h 4 mph /  6.4 km/h 84 % 0 in /  0.0 mm
02:32 40.5 °F /  4.7 °C 36.3 °F /  2.4 °C 30.1 in /  1017.8 hPa South 1 mph /  1.6 km/h 4 mph /  6.4 km/h 85 % 0 in /  0.0 mm
02:37 39.7 °F /  4.3 °C 36 °F /  2.2 °C 30.1 in /  1017.8 hPa SSW 3 mph /  4.8 km/h 4 mph /  6.4 km/h 86 % 0 in /  0.0 mm
02:42 39.7 °F /  4.3 °C 36 °F /  2.2 °C 30.1 in /  1017.8 hPa SSW 1 mph /  1.6 km/h 4 mph /  6.4 km/h 86 % 0 in /  0.0 mm
02:47 39.4 °F /  4.1 °C 35.8 °F /  2.1 °C 30.1 in /  1017.8 hPa SSW 2 mph /  3.2 km/h 4 mph /  6.4 km/h 87 % 0 in /  0.0 mm
02:52 39.6 °F /  4.2 °C 36 °F /  2.2 °C 30.1 in /  1017.8 hPa SSW 2 mph /  3.2 km/h 4 mph /  6.4 km/h 87 % 0 in /  0.0 mm
02:57 39.6 °F /  4.2 °C 36 °F /  2.2 °C 30.1 in /  1017.8 hPa SSE 1 mph /  1.6 km/h 4 mph /  6.4 km/h 87 % 0 in /  0.0 mm
03:02 39.6 °F /  4.2 °C 36.3 °F /  2.4 °C 30.1 in /  1017.8 hPa SSE 1 mph /  1.6 km/h 4 mph /  6.4 km/h 88 % 0 in /  0.0 mm
03:12 39.6 °F /  4.2 °C 36 °F /  2.2 °C 30.1 in /  1017.8 hPa SW 2 mph /  3.2 km/h 4 mph /  6.4 km/h 87 % 0 in /  0.0 mm
03:17 39.6 °F /  4.2 °C 36.3 °F /  2.4 °C 30.1 in /  1017.8 hPa SSW 4 mph /  6.4 km/h 4 mph /  6.4 km/h 88 % 0 in /  0.0 mm
03:22 39.9 °F /  4.4 °C 36.7 °F /  2.6 °C 30.1 in /  1017.8 hPa SW 5 mph /  8.0 km/h 5 mph /  8.0 km/h 88 % 0 in /  0.0 mm
03:32 40.1 °F /  4.5 °C 36.9 °F /  2.7 °C 30.1 in /  1017.8 hPa South 2 mph /  3.2 km/h 7 mph /  11.3 km/h 88 % 0 in /  0.0 mm
03:37 39.7 °F /  4.3 °C 36.7 °F /  2.6 °C 30.1 in /  1017.5 hPa SW 2 mph /  3.2 km/h 7 mph /  11.3 km/h 89 % 0.01 in /  0.3 mm
03:42 39.7 °F /  4.3 °C 37 °F /  2.8 °C 30.1 in /  1017.5 hPa SW 3 mph /  4.8 km/h 7 mph /  11.3 km/h 90 % 0.01 in /  0.3 mm
03:47 39.9 °F /  4.4 °C 37.2 °F /  2.9 °C 30.1 in /  1017.5 hPa SSW 2 mph /  3.2 km/h 5 mph /  8.0 km/h 90 % 0.01 in /  0.3 mm
03:52 39.9 °F /  4.4 °C 37.2 °F /  2.9 °C 30 in /  1017.2 hPa SSE 1 mph /  1.6 km/h 5 mph /  8.0 km/h 90 % 0.01 in /  0.3 mm
03:57 39.9 °F /  4.4 °C 37.2 °F /  2.9 °C 30 in /  1017.2 hPa SW 3 mph /  4.8 km/h 5 mph /  8.0 km/h 90 % 0.01 in /  0.3 mm
04:02 40.1 °F /  4.5 °C 37.4 °F /  3.0 °C 30 in /  1017.2 hPa SSW 2 mph /  3.2 km/h 3 mph /  4.8 km/h 90 % 0.01 in /  0.3 mm
04:22 40.8 °F /  4.9 °C 37.8 °F /  3.2 °C 30 in /  1017.2 hPa SSW 4 mph /  6.4 km/h 7 mph /  11.3 km/h 89 % 0.01 in /  0.3 mm
04:32 41.2 °F /  5.1 °C 38.1 °F /  3.4 °C 30 in /  1017.2 hPa SSW 4 mph /  6.4 km/h 8 mph /  12.9 km/h 89 % 0.01 in /  0.3 mm
04:37 41.2 °F /  5.1 °C 38.1 °F /  3.4 °C 30 in /  1016.8 hPa SSW 6 mph /  9.7 km/h 10 mph /  16.1 km/h 89 % 0 in /  0.0 mm
04:42 41 °F /  5.0 °C 37.9 °F /  3.3 °C 30 in /  1016.8 hPa South 3 mph /  4.8 km/h 10 mph /  16.1 km/h 89 % 0 in /  0.0 mm
04:47 41.2 °F /  5.1 °C 38.5 °F /  3.6 °C 30 in /  1016.8 hPa SSW 6 mph /  9.7 km/h 10 mph /  16.1 km/h 90 % 0 in /  0.0 mm
04:52 41.5 °F /  5.3 °C 38.5 °F /  3.6 °C 30 in /  1016.8 hPa SW 8 mph /  12.9 km/h 11 mph /  17.7 km/h 89 % 0 in /  0.0 mm
04:57 41.5 °F /  5.3 °C 38.5 °F /  3.6 °C 30 in /  1016.8 hPa South 5 mph /  8.0 km/h 11 mph /  17.7 km/h 89 % 0 in /  0.0 mm
05:02 41.9 °F /  5.5 °C 38.7 °F /  3.7 °C 30 in /  1016.8 hPa SW 6 mph /  9.7 km/h 11 mph /  17.7 km/h 88 % 0 in /  0.0 mm
05:12 42.3 °F /  5.7 °C 39 °F /  3.9 °C 30 in /  1016.8 hPa South 6 mph /  9.7 km/h 13 mph /  20.9 km/h 88 % 0 in /  0.0 mm
05:17 42.3 °F /  5.7 °C 39 °F /  3.9 °C 30 in /  1016.8 hPa SSW 4 mph /  6.4 km/h 13 mph /  20.9 km/h 88 % 0 in /  0.0 mm
05:22 42.1 °F /  5.6 °C 38.8 °F /  3.8 °C 30 in /  1016.8 hPa SW 4 mph /  6.4 km/h 7 mph /  11.3 km/h 88 % 0 in /  0.0 mm
05:32 41.9 °F /  5.5 °C 38.8 °F /  3.8 °C 30 in /  1016.8 hPa South 3 mph /  4.8 km/h 7 mph /  11.3 km/h 89 % 0 in /  0.0 mm
05:42 42.1 °F /  5.6 °C 39 °F /  3.9 °C 30 in /  1016.8 hPa SSW 3 mph /  4.8 km/h 6 mph /  9.7 km/h 89 % 0 in /  0.0 mm
05:47 42.1 °F /  5.6 °C 39 °F /  3.9 °C 30 in /  1016.8 hPa SSW 3 mph /  4.8 km/h 6 mph /  9.7 km/h 89 % 0 in /  0.0 mm
05:52 42.1 °F /  5.6 °C 39 °F /  3.9 °C 30 in /  1016.8 hPa SW 7 mph /  11.3 km/h 7 mph /  11.3 km/h 89 % 0 in /  0.0 mm
05:57 41.9 °F /  5.5 °C 38.8 °F /  3.8 °C 30 in /  1016.8 hPa SW 4 mph /  6.4 km/h 7 mph /  11.3 km/h 89 % 0 in /  0.0 mm
06:02 41.7 °F /  5.4 °C 39 °F /  3.9 °C 30 in /  1016.8 hPa SSW 3 mph /  4.8 km/h 7 mph /  11.3 km/h 90 % 0 in /  0.0 mm
06:07 41.7 °F /  5.4 °C 39 °F /  3.9 °C 30 in /  1016.8 hPa SSW 3 mph /  4.8 km/h 7 mph /  11.3 km/h 90 % 0 in /  0.0 mm
06:12 41.7 °F /  5.4 °C 39 °F /  3.9 °C 30 in /  1016.8 hPa SSW 5 mph /  8.0 km/h 7 mph /  11.3 km/h 90 % 0 in /  0.0 mm
06:17 41.9 °F /  5.5 °C 39.2 °F /  4.0 °C 30 in /  1016.8 hPa SSW 5 mph /  8.0 km/h 7 mph /  11.3 km/h 90 % 0 in /  0.0 mm
06:22 41.9 °F /  5.5 °C 39.4 °F /  4.1 °C 30 in /  1016.8 hPa SSW 4 mph /  6.4 km/h 7 mph /  11.3 km/h 91 % 0 in /  0.0 mm
06:32 41.5 °F /  5.3 °C 39.4 °F /  4.1 °C 30 in /  1016.8 hPa SSW 2 mph /  3.2 km/h 8 mph /  12.9 km/h 92 % 0 in /  0.0 mm
06:42 41.5 °F /  5.3 °C 39.7 °F /  4.3 °C 30 in /  1016.8 hPa SSW 1 mph /  1.6 km/h 6 mph /  9.7 km/h 93 % 0 in /  0.0 mm
06:47 41.4 °F /  5.2 °C 39.7 °F /  4.3 °C 30 in /  1016.8 hPa SSW 5 mph /  8.0 km/h 6 mph /  9.7 km/h 94 % 0 in /  0.0 mm
06:52 41.5 °F /  5.3 °C 39.9 °F /  4.4 °C 30 in /  1016.5 hPa SSW 3 mph /  4.8 km/h 5 mph /  8.0 km/h 94 % 0 in /  0.0 mm
07:02 41.4 °F /  5.2 °C 39.7 °F /  4.3 °C 30 in /  1016.5 hPa SSW 2 mph /  3.2 km/h 5 mph /  8.0 km/h 94 % 0 in /  0.0 mm
07:07 41.4 °F /  5.2 °C 40.1 °F /  4.5 °C 30 in /  1016.5 hPa SSW 3 mph /  4.8 km/h 5 mph /  8.0 km/h 95 % 0.01 in /  0.3 mm
07:12 41.4 °F /  5.2 °C 40.1 °F /  4.5 °C 30 in /  1016.8 hPa SSW 2 mph /  3.2 km/h 6 mph /  9.7 km/h 95 % 0.01 in /  0.3 mm
07:17 41.4 °F /  5.2 °C 40.1 °F /  4.5 °C 30 in /  1016.8 hPa SSW 3 mph /  4.8 km/h 6 mph /  9.7 km/h 95 % 0.01 in /  0.3 mm
07:22 41.4 °F /  5.2 °C 40.3 °F /  4.6 °C 30 in /  1016.8 hPa SSW 1 mph /  1.6 km/h 5 mph /  8.0 km/h 96 % 0.01 in /  0.3 mm
07:32 41.4 °F /  5.2 °C 40.3 °F /  4.6 °C 30 in /  1016.8 hPa SSW 2 mph /  3.2 km/h 5 mph /  8.0 km/h 96 % 0.01 in /  0.3 mm
07:42 41.4 °F /  5.2 °C 40.3 °F /  4.6 °C 30 in /  1016.8 hPa SSW 1 mph /  1.6 km/h 5 mph /  8.0 km/h 96 % 0.01 in /  0.3 mm
07:52 41.2 °F /  5.1 °C 40.1 °F /  4.5 °C 30 in /  1016.8 hPa Calm   3 mph /  4.8 km/h 96 % 0.01 in /  0.3 mm
08:02 41.4 °F /  5.2 °C 40.3 °F /  4.6 °C 30 in /  1016.8 hPa South 2 mph /  3.2 km/h 3 mph /  4.8 km/h 96 % 0 in /  0.0 mm
08:12 41.4 °F /  5.2 °C 40.3 °F /  4.6 °C 30 in /  1016.8 hPa SSW 1 mph /  1.6 km/h 4 mph /  6.4 km/h 96 % 0.01 in /  0.3 mm
08:22 41.4 °F /  5.2 °C 40.6 °F /  4.8 °C 30 in /  1016.8 hPa SSE 1 mph /  1.6 km/h 3 mph /  4.8 km/h 97 % 0.01 in /  0.3 mm
08:42 41.5 °F /  5.3 °C 40.8 °F /  4.9 °C 30 in /  1016.8 hPa SSE 1 mph /  1.6 km/h 3 mph /  4.8 km/h 97 % 0.01 in /  0.3 mm
08:52 41.5 °F /  5.3 °C 40.8 °F /  4.9 °C 30 in /  1016.8 hPa South 1 mph /  1.6 km/h 5 mph /  8.0 km/h 97 % 0.02 in /  0.5 mm
09:02 41.5 °F /  5.3 °C 40.8 °F /  4.9 °C 30 in /  1016.8 hPa SSW 3 mph /  4.8 km/h 4 mph /  6.4 km/h 97 % 0.02 in /  0.5 mm
09:12 41.5 °F /  5.3 °C 40.8 °F /  4.9 °C 30 in /  1016.8 hPa SSW 2 mph /  3.2 km/h 4 mph /  6.4 km/h 97 % 0.01 in /  0.3 mm
09:22 41.5 °F /  5.3 °C 40.8 °F /  4.9 °C 30 in /  1016.8 hPa SW 1 mph /  1.6 km/h 4 mph /  6.4 km/h 97 % 0.02 in /  0.5 mm
09:32 42.1 °F /  5.6 °C 41.4 °F /  5.2 °C 30 in /  1016.8 hPa SSW 1 mph /  1.6 km/h 3 mph /  4.8 km/h 97 % 0.02 in /  0.5 mm
09:37 42.3 °F /  5.7 °C 41.5 °F /  5.3 °C 30 in /  1016.8 hPa South 3 mph /  4.8 km/h 3 mph /  4.8 km/h 97 % 0.02 in /  0.5 mm
09:42 42.6 °F /  5.9 °C 41.9 °F /  5.5 °C 30 in /  1016.8 hPa SSW 2 mph /  3.2 km/h 4 mph /  6.4 km/h 97 % 0.02 in /  0.5 mm
09:47 42.8 °F /  6.0 °C 42.3 °F /  5.7 °C 30 in /  1016.8 hPa South 3 mph /  4.8 km/h 4 mph /  6.4 km/h 98 % 0.02 in /  0.5 mm
09:52 43 °F /  6.1 °C 42.4 °F /  5.8 °C 30 in /  1016.8 hPa SSW 4 mph /  6.4 km/h 5 mph /  8.0 km/h 98 % 0.01 in /  0.3 mm
10:02 43.3 °F /  6.3 °C 42.8 °F /  6.0 °C 30 in /  1016.8 hPa SSW 2 mph /  3.2 km/h 6 mph /  9.7 km/h 98 % 0.01 in /  0.3 mm
10:17 44.1 °F /  6.7 °C 43.5 °F /  6.4 °C 30 in /  1016.8 hPa SW 3 mph /  4.8 km/h 7 mph /  11.3 km/h 98 % 0.01 in /  0.3 mm
10:32 44.6 °F /  7.0 °C 44.1 °F /  6.7 °C 30 in /  1016.8 hPa SSW 6 mph /  9.7 km/h 9 mph /  14.5 km/h 98 % 0.01 in /  0.3 mm
10:37 44.8 °F /  7.1 °C 44.2 °F /  6.8 °C 30 in /  1016.8 hPa SW 5 mph /  8.0 km/h 9 mph /  14.5 km/h 98 % 0.01 in /  0.3 mm
10:42 44.8 °F /  7.1 °C 44.2 °F /  6.8 °C 30 in /  1017.2 hPa SSW 5 mph /  8.0 km/h 9 mph /  14.5 km/h 98 % 0.01 in /  0.3 mm
10:47 44.8 °F /  7.1 °C 44.2 °F /  6.8 °C 30 in /  1017.2 hPa SSW 6 mph /  9.7 km/h 9 mph /  14.5 km/h 98 % 0.01 in /  0.3 mm
10:52 44.8 °F /  7.1 °C 44.2 °F /  6.8 °C 30 in /  1017.2 hPa SSW 4 mph /  6.4 km/h 9 mph /  14.5 km/h 98 % 0.01 in /  0.3 mm
10:57 45 °F /  7.2 °C 44.4 °F /  6.9 °C 30 in /  1017.2 hPa SSW 5 mph /  8.0 km/h 9 mph /  14.5 km/h 98 % 0.01 in /  0.3 mm
11:02 45 °F /  7.2 °C 44.4 °F /  6.9 °C 30 in /  1017.2 hPa SW 4 mph /  6.4 km/h 8 mph /  12.9 km/h 98 % 0.01 in /  0.3 mm
11:12 45.1 °F /  7.3 °C 44.6 °F /  7.0 °C 30 in /  1017.2 hPa SSW 6 mph /  9.7 km/h 8 mph /  12.9 km/h 98 % 0.01 in /  0.3 mm
11:17 45.3 °F /  7.4 °C 44.8 °F /  7.1 °C 30 in /  1017.2 hPa SSW 6 mph /  9.7 km/h 8 mph /  12.9 km/h 98 % 0.01 in /  0.3 mm
11:22 45.7 °F /  7.6 °C 45.1 °F /  7.3 °C 30 in /  1017.2 hPa SW 9 mph /  14.5 km/h 10 mph /  16.1 km/h 98 % 0.01 in /  0.3 mm
11:32 45.9 °F /  7.7 °C 45.3 °F /  7.4 °C 30 in /  1017.2 hPa SW 7 mph /  11.3 km/h 12 mph /  19.3 km/h 98 % 0.02 in /  0.5 mm
11:37 45.9 °F /  7.7 °C 45.3 °F /  7.4 °C 30 in /  1017.2 hPa SW 7 mph /  11.3 km/h 12 mph /  19.3 km/h 98 % 0.02 in /  0.5 mm
11:42 46 °F /  7.8 °C 45.5 °F /  7.5 °C 30 in /  1017.2 hPa SW 7 mph /  11.3 km/h 12 mph /  19.3 km/h 98 % 0.02 in /  0.5 mm
11:52 46.2 °F /  7.9 °C 45.7 °F /  7.6 °C 30 in /  1017.2 hPa SSW 6 mph /  9.7 km/h 12 mph /  19.3 km/h 98 % 0.03 in /  0.8 mm
12:02 46.2 °F /  7.9 °C 45.7 °F /  7.6 °C 30 in /  1017.2 hPa SSW 2 mph /  3.2 km/h 11 mph /  17.7 km/h 98 % 0.03 in /  0.8 mm
12:12 46.2 °F /  7.9 °C 45.7 °F /  7.6 °C 30 in /  1017.2 hPa South 3 mph /  4.8 km/h 11 mph /  17.7 km/h 98 % 0.02 in /  0.5 mm
12:17 46.4 °F /  8.0 °C 45.9 °F /  7.7 °C 30 in /  1016.8 hPa SSW 3 mph /  4.8 km/h 11 mph /  17.7 km/h 98 % 0.02 in /  0.5 mm
12:22 46.4 °F /  8.0 °C 45.9 °F /  7.7 °C 30 in /  1016.8 hPa SSW 7 mph /  11.3 km/h 10 mph /  16.1 km/h 98 % 0.02 in /  0.5 mm
12:32 46.6 °F /  8.1 °C 46 °F /  7.8 °C 30 in /  1016.8 hPa South 5 mph /  8.0 km/h 10 mph /  16.1 km/h 98 % 0.02 in /  0.5 mm
12:37 46.6 °F /  8.1 °C 46 °F /  7.8 °C 30 in /  1016.8 hPa SSW 4 mph /  6.4 km/h 10 mph /  16.1 km/h 98 % 0.02 in /  0.5 mm
12:42 46.8 °F /  8.2 °C 46.2 °F /  7.9 °C 30 in /  1016.8 hPa SW 8 mph /  12.9 km/h 10 mph /  16.1 km/h 98 % 0.02 in /  0.5 mm
12:52 46.9 °F /  8.3 °C 46.4 °F /  8.0 °C 30 in /  1016.8 hPa SSW 7 mph /  11.3 km/h 9 mph /  14.5 km/h 98 % 0.01 in /  0.3 mm
13:02 47.1 °F /  8.4 °C 46.6 °F /  8.1 °C 30 in /  1016.8 hPa WSW 3 mph /  4.8 km/h 9 mph /  14.5 km/h 98 % 0.01 in /  0.3 mm
13:12 47.1 °F /  8.4 °C 46.6 °F /  8.1 °C 30 in /  1016.5 hPa SW 4 mph /  6.4 km/h 9 mph /  14.5 km/h 98 % 0.01 in /  0.3 mm
13:17 47.1 °F /  8.4 °C 46.4 °F /  8.0 °C 30 in /  1016.5 hPa SSW 3 mph /  4.8 km/h 9 mph /  14.5 km/h 97 % 0.01 in /  0.3 mm
13:22 47.3 °F /  8.5 °C 46.6 °F /  8.1 °C 30 in /  1016.5 hPa WSW 10 mph /  16.1 km/h 10 mph /  16.1 km/h 97 % 0.01 in /  0.3 mm
13:27 47.3 °F /  8.5 °C 46.6 °F /  8.1 °C 30 in /  1016.5 hPa SW 8 mph /  12.9 km/h 11 mph /  17.7 km/h 97 % 0.01 in /  0.3 mm
13:32 47.5 °F /  8.6 °C 46.8 °F /  8.2 °C 30 in /  1016.1 hPa SSW 3 mph /  4.8 km/h 11 mph /  17.7 km/h 97 % 0.01 in /  0.3 mm
13:37 47.5 °F /  8.6 °C 46.8 °F /  8.2 °C 30 in /  1016.1 hPa WSW 8 mph /  12.9 km/h 11 mph /  17.7 km/h 97 % 0.01 in /  0.3 mm
13:42 47.5 °F /  8.6 °C 46.8 °F /  8.2 °C 30 in /  1016.1 hPa WSW 5 mph /  8.0 km/h 11 mph /  17.7 km/h 97 % 0.01 in /  0.3 mm
13:47 47.7 °F /  8.7 °C 46.9 °F /  8.3 °C 30 in /  1016.1 hPa SW 6 mph /  9.7 km/h 10 mph /  16.1 km/h 97 % 0 in /  0.0 mm
13:52 47.7 °F /  8.7 °C 46.9 °F /  8.3 °C 30 in /  1016.1 hPa South 5 mph /  8.0 km/h 10 mph /  16.1 km/h 97 % 0 in /  0.0 mm
13:57 47.7 °F /  8.7 °C 46.9 °F /  8.3 °C 30 in /  1016.1 hPa SSW 4 mph /  6.4 km/h 10 mph /  16.1 km/h 97 % 0 in /  0.0 mm
14:02 47.7 °F /  8.7 °C 46.9 °F /  8.3 °C 30 in /  1016.1 hPa SSW 4 mph /  6.4 km/h 10 mph /  16.1 km/h 97 % 0 in /  0.0 mm
14:07 47.7 °F /  8.7 °C 46.9 °F /  8.3 °C 30 in /  1016.1 hPa WSW 5 mph /  8.0 km/h 10 mph /  16.1 km/h 97 % 0 in /  0.0 mm
14:12 47.8 °F /  8.8 °C 46.9 °F /  8.3 °C 30 in /  1016.1 hPa SW 2 mph /  3.2 km/h 10 mph /  16.1 km/h 97 % 0 in /  0.0 mm
14:17 47.8 °F /  8.8 °C 46.9 °F /  8.3 °C 30 in /  1016.1 hPa SW 3 mph /  4.8 km/h 10 mph /  16.1 km/h 97 % 0 in /  0.0 mm
14:22 47.8 °F /  8.8 °C 46.9 °F /  8.3 °C 30 in /  1016.1 hPa SW 3 mph /  4.8 km/h 10 mph /  16.1 km/h 97 % 0 in /  0.0 mm
14:27 47.8 °F /  8.8 °C 46.9 °F /  8.3 °C 30 in /  1016.1 hPa SSW 3 mph /  4.8 km/h 9 mph /  14.5 km/h 97 % 0 in /  0.0 mm
14:32 47.8 °F /  8.8 °C 46.9 °F /  8.3 °C 30 in /  1016.1 hPa SW 3 mph /  4.8 km/h 9 mph /  14.5 km/h 97 % 0 in /  0.0 mm
14:37 47.8 °F /  8.8 °C 46.9 °F /  8.3 °C 30 in /  1016.1 hPa SSW 4 mph /  6.4 km/h 9 mph /  14.5 km/h 97 % 0 in /  0.0 mm
14:42 48 °F /  8.9 °C 47.1 °F /  8.4 °C 30 in /  1015.8 hPa SW 2 mph /  3.2 km/h 9 mph /  14.5 km/h 97 % 0 in /  0.0 mm
14:47 48 °F /  8.9 °C 47.1 °F /  8.4 °C 30 in /  1015.8 hPa SSW 4 mph /  6.4 km/h 8 mph /  12.9 km/h 97 % 0 in /  0.0 mm
14:52 48 °F /  8.9 °C 47.1 °F /  8.4 °C 30 in /  1015.8 hPa SSW 5 mph /  8.0 km/h 8 mph /  12.9 km/h 97 % 0 in /  0.0 mm
14:57 48 °F /  8.9 °C 47.1 °F /  8.4 °C 30 in /  1015.8 hPa SW 4 mph /  6.4 km/h 7 mph /  11.3 km/h 97 % 0.01 in /  0.3 mm
15:02 48 °F /  8.9 °C 47.1 °F /  8.4 °C 30 in /  1015.8 hPa SW 3 mph /  4.8 km/h 7 mph /  11.3 km/h 97 % 0.01 in /  0.3 mm
15:12 48 °F /  8.9 °C 47.1 °F /  8.4 °C 30 in /  1015.8 hPa SW 5 mph /  8.0 km/h 7 mph /  11.3 km/h 97 % 0.01 in /  0.3 mm
15:17 48 °F /  8.9 °C 47.5 °F /  8.6 °C 30 in /  1015.8 hPa SSW 5 mph /  8.0 km/h 9 mph /  14.5 km/h 98 % 0.01 in /  0.3 mm
15:22 48.4 °F /  9.1 °C 47.8 °F /  8.8 °C 30 in /  1015.8 hPa SW 5 mph /  8.0 km/h 9 mph /  14.5 km/h 98 % 0.01 in /  0.3 mm
15:32 48.6 °F /  9.2 °C 48 °F /  8.9 °C 30 in /  1015.8 hPa South 2 mph /  3.2 km/h 9 mph /  14.5 km/h 98 % 0.02 in /  0.5 mm
15:37 48.6 °F /  9.2 °C 48 °F /  8.9 °C 30 in /  1015.8 hPa WSW 8 mph /  12.9 km/h 9 mph /  14.5 km/h 98 % 0.02 in /  0.5 mm
15:42 48.6 °F /  9.2 °C 48 °F /  8.9 °C 30 in /  1015.8 hPa SW 5 mph /  8.0 km/h 9 mph /  14.5 km/h 98 % 0.02 in /  0.5 mm
15:47 48.7 °F /  9.3 °C 48.2 °F /  9.0 °C 30 in /  1015.8 hPa SW 5 mph /  8.0 km/h 9 mph /  14.5 km/h 98 % 0.02 in /  0.5 mm
15:52 48.7 °F /  9.3 °C 48.2 °F /  9.0 °C 30 in /  1015.8 hPa SW 6 mph /  9.7 km/h 9 mph /  14.5 km/h 98 % 0.02 in /  0.5 mm
15:57 48.7 °F /  9.3 °C 47.8 °F /  8.8 °C 30 in /  1015.8 hPa SSW 5 mph /  8.0 km/h 9 mph /  14.5 km/h 97 % 0.02 in /  0.5 mm
16:02 48.7 °F /  9.3 °C 47.8 °F /  8.8 °C 30 in /  1015.8 hPa SSW 4 mph /  6.4 km/h 10 mph /  16.1 km/h 97 % 0.03 in /  0.8 mm
16:07 48.7 °F /  9.3 °C 47.8 °F /  8.8 °C 30 in /  1015.8 hPa SW 7 mph /  11.3 km/h 10 mph /  16.1 km/h 97 % 0.03 in /  0.8 mm
16:12 48.7 °F /  9.3 °C 47.8 °F /  8.8 °C 30 in /  1015.8 hPa SW 6 mph /  9.7 km/h 10 mph /  16.1 km/h 97 % 0.03 in /  0.8 mm
16:17 48.9 °F /  9.4 °C 48 °F /  8.9 °C 30 in /  1015.8 hPa SW 5 mph /  8.0 km/h 8 mph /  12.9 km/h 97 % 0.04 in /  1.0 mm
16:22 48.9 °F /  9.4 °C 48 °F /  8.9 °C 30 in /  1015.8 hPa SSW 4 mph /  6.4 km/h 9 mph /  14.5 km/h 97 % 0.04 in /  1.0 mm
16:27 48.9 °F /  9.4 °C 48 °F /  8.9 °C 30 in /  1015.8 hPa WSW 9 mph /  14.5 km/h 9 mph /  14.5 km/h 97 % 0.03 in /  0.8 mm
16:32 48.9 °F /  9.4 °C 48 °F /  8.9 °C 30 in /  1015.8 hPa SW 7 mph /  11.3 km/h 9 mph /  14.5 km/h 97 % 0.03 in /  0.8 mm
16:37 48.9 °F /  9.4 °C 48 °F /  8.9 °C 30 in /  1015.8 hPa SW 6 mph /  9.7 km/h 10 mph /  16.1 km/h 97 % 0.03 in /  0.8 mm
16:42 48.9 °F /  9.4 °C 48 °F /  8.9 °C 30 in /  1015.8 hPa SW 4 mph /  6.4 km/h 10 mph /  16.1 km/h 97 % 0.03 in /  0.8 mm
16:47 48.9 °F /  9.4 °C 48 °F /  8.9 °C 30 in /  1015.8 hPa SW 5 mph /  8.0 km/h 9 mph /  14.5 km/h 97 % 0.03 in /  0.8 mm
16:57 48.9 °F /  9.4 °C 48 °F /  8.9 °C 30 in /  1015.8 hPa WSW 4 mph /  6.4 km/h 10 mph /  16.1 km/h 97 % 0.02 in /  0.5 mm
17:02 48.9 °F /  9.4 °C 48 °F /  8.9 °C 30 in /  1015.8 hPa SW 7 mph /  11.3 km/h 10 mph /  16.1 km/h 97 % 0.02 in /  0.5 mm
17:22 48.9 °F /  9.4 °C 48 °F /  8.9 °C 30 in /  1015.8 hPa SSW 4 mph /  6.4 km/h 8 mph /  12.9 km/h 97 % 0.02 in /  0.5 mm
17:27 48.9 °F /  9.4 °C 48 °F /  8.9 °C 30 in /  1015.8 hPa SSW 4 mph /  6.4 km/h 8 mph /  12.9 km/h 97 % 0.02 in /  0.5 mm
17:37 48.9 °F /  9.4 °C 48 °F /  8.9 °C 30 in /  1016.1 hPa SW 5 mph /  8.0 km/h 8 mph /  12.9 km/h 97 % 0.02 in /  0.5 mm
17:42 48.9 °F /  9.4 °C 48 °F /  8.9 °C 30 in /  1016.1 hPa SSW 3 mph /  4.8 km/h 8 mph /  12.9 km/h 97 % 0.02 in /  0.5 mm
17:47 48.7 °F /  9.3 °C 47.8 °F /  8.8 °C 30 in /  1016.1 hPa SW 4 mph /  6.4 km/h 8 mph /  12.9 km/h 97 % 0.01 in /  0.3 mm
17:52 48.9 °F /  9.4 °C 48 °F /  8.9 °C 30 in /  1016.1 hPa SW 6 mph /  9.7 km/h 8 mph /  12.9 km/h 97 % 0.01 in /  0.3 mm
17:57 48.7 °F /  9.3 °C 47.8 °F /  8.8 °C 30 in /  1016.1 hPa SW 4 mph /  6.4 km/h 8 mph /  12.9 km/h 97 % 0.01 in /  0.3 mm
18:02 48.6 °F /  9.2 °C 47.7 °F /  8.7 °C 30 in /  1016.1 hPa SSW 2 mph /  3.2 km/h 8 mph /  12.9 km/h 97 % 0.01 in /  0.3 mm
18:12 48.6 °F /  9.2 °C 47.7 °F /  8.7 °C 30 in /  1016.1 hPa SW 5 mph /  8.0 km/h 8 mph /  12.9 km/h 97 % 0.01 in /  0.3 mm
18:17 48.6 °F /  9.2 °C 47.7 °F /  8.7 °C 30 in /  1016.1 hPa SW 6 mph /  9.7 km/h 9 mph /  14.5 km/h 97 % 0 in /  0.0 mm
18:32 48.9 °F /  9.4 °C 48.4 °F /  9.1 °C 30 in /  1016.1 hPa SW 4 mph /  6.4 km/h 9 mph /  14.5 km/h 98 % 0 in /  0.0 mm
18:47 49.1 °F /  9.5 °C 48.6 °F /  9.2 °C 30 in /  1016.1 hPa SSW 2 mph /  3.2 km/h 9 mph /  14.5 km/h 98 % 0 in /  0.0 mm
19:07 49.3 °F /  9.6 °C 48.7 °F /  9.3 °C 30 in /  1016.5 hPa SW 6 mph /  9.7 km/h 12 mph /  19.3 km/h 98 % 0 in /  0.0 mm
19:12 49.3 °F /  9.6 °C 48.4 °F /  9.1 °C 30 in /  1016.5 hPa WSW 2 mph /  3.2 km/h 12 mph /  19.3 km/h 97 % 0 in /  0.0 mm
19:17 49.3 °F /  9.6 °C 48.4 °F /  9.1 °C 30 in /  1016.5 hPa SW 4 mph /  6.4 km/h 12 mph /  19.3 km/h 97 % 0.01 in /  0.3 mm
19:22 49.3 °F /  9.6 °C 48.4 °F /  9.1 °C 30 in /  1016.5 hPa SW 7 mph /  11.3 km/h 12 mph /  19.3 km/h 97 % 0.01 in /  0.3 mm
19:27 49.3 °F /  9.6 °C 48.4 °F /  9.1 °C 30 in /  1016.5 hPa West 3 mph /  4.8 km/h 8 mph /  12.9 km/h 97 % 0.01 in /  0.3 mm
19:32 49.3 °F /  9.6 °C 48.4 °F /  9.1 °C 30 in /  1016.5 hPa WSW 8 mph /  12.9 km/h 8 mph /  12.9 km/h 97 % 0.01 in /  0.3 mm
19:37 49.3 °F /  9.6 °C 48.4 °F /  9.1 °C 30 in /  1016.5 hPa SW 1 mph /  1.6 km/h 10 mph /  16.1 km/h 97 % 0.01 in /  0.3 mm
19:42 49.3 °F /  9.6 °C 48.4 °F /  9.1 °C 30 in /  1016.5 hPa SW 4 mph /  6.4 km/h 10 mph /  16.1 km/h 97 % 0.01 in /  0.3 mm
19:47 49.3 °F /  9.6 °C 48.4 °F /  9.1 °C 30 in /  1016.8 hPa SSW 4 mph /  6.4 km/h 10 mph /  16.1 km/h 97 % 0.01 in /  0.3 mm
19:52 49.3 °F /  9.6 °C 48.4 °F /  9.1 °C 30 in /  1016.8 hPa SW 7 mph /  11.3 km/h 10 mph /  16.1 km/h 97 % 0.01 in /  0.3 mm
19:57 49.1 °F /  9.5 °C 48.6 °F /  9.2 °C 30 in /  1016.8 hPa WSW 5 mph /  8.0 km/h 10 mph /  16.1 km/h 98 % 0.01 in /  0.3 mm
20:02 49.1 °F /  9.5 °C 48.6 °F /  9.2 °C 30 in /  1016.8 hPa WSW 5 mph /  8.0 km/h 10 mph /  16.1 km/h 98 % 0.01 in /  0.3 mm
20:12 49.1 °F /  9.5 °C 48.6 °F /  9.2 °C 30 in /  1016.8 hPa WSW 3 mph /  4.8 km/h 10 mph /  16.1 km/h 98 % 0.01 in /  0.3 mm
20:17 49.1 °F /  9.5 °C 48.6 °F /  9.2 °C 30 in /  1016.8 hPa WSW 6 mph /  9.7 km/h 10 mph /  16.1 km/h 98 % 0 in /  0.0 mm
20:27 48.9 °F /  9.4 °C 48.4 °F /  9.1 °C 30 in /  1016.8 hPa SW 3 mph /  4.8 km/h 9 mph /  14.5 km/h 98 % 0 in /  0.0 mm
20:32 48.7 °F /  9.3 °C 47.8 °F /  8.8 °C 30 in /  1016.8 hPa SW 5 mph /  8.0 km/h 9 mph /  14.5 km/h 97 % 0 in /  0.0 mm
20:37 48.7 °F /  9.3 °C 48.2 °F /  9.0 °C 30 in /  1016.8 hPa SSW 2 mph /  3.2 km/h 9 mph /  14.5 km/h 98 % 0 in /  0.0 mm
20:42 48.7 °F /  9.3 °C 48.2 °F /  9.0 °C 30 in /  1016.8 hPa SSW 3 mph /  4.8 km/h 9 mph /  14.5 km/h 98 % 0 in /  0.0 mm
20:47 48.7 °F /  9.3 °C 48.2 °F /  9.0 °C 30 in /  1016.8 hPa WSW 5 mph /  8.0 km/h 7 mph /  11.3 km/h 98 % 0 in /  0.0 mm
20:52 48.7 °F /  9.3 °C 48.2 °F /  9.0 °C 30 in /  1016.8 hPa SW 5 mph /  8.0 km/h 7 mph /  11.3 km/h 98 % 0 in /  0.0 mm
20:57 48.7 °F /  9.3 °C 48.2 °F /  9.0 °C 30 in /  1016.8 hPa SW 3 mph /  4.8 km/h 6 mph /  9.7 km/h 98 % 0 in /  0.0 mm
21:02 48.7 °F /  9.3 °C 48.2 °F /  9.0 °C 30 in /  1016.8 hPa SSW 2 mph /  3.2 km/h 8 mph /  12.9 km/h 98 % 0 in /  0.0 mm
21:07 48.9 °F /  9.4 °C 48.4 °F /  9.1 °C 30 in /  1017.2 hPa WSW 5 mph /  8.0 km/h 8 mph /  12.9 km/h 98 % 0 in /  0.0 mm
21:17 48.9 °F /  9.4 °C 48.4 °F /  9.1 °C 30 in /  1016.8 hPa SW 3 mph /  4.8 km/h 8 mph /  12.9 km/h 98 % 0 in /  0.0 mm
21:22 48.9 °F /  9.4 °C 48.4 °F /  9.1 °C 30 in /  1016.8 hPa SSW 3 mph /  4.8 km/h 8 mph /  12.9 km/h 98 % 0 in /  0.0 mm
21:32 48.9 °F /  9.4 °C 48.4 °F /  9.1 °C 30 in /  1016.8 hPa SW 4 mph /  6.4 km/h 8 mph /  12.9 km/h 98 % 0 in /  0.0 mm
21:37 48.9 °F /  9.4 °C 48.4 °F /  9.1 °C 30 in /  1016.8 hPa WSW 2 mph /  3.2 km/h 8 mph /  12.9 km/h 98 % 0 in /  0.0 mm
21:42 48.7 °F /  9.3 °C 48.2 °F /  9.0 °C 30 in /  1016.8 hPa SW 3 mph /  4.8 km/h 8 mph /  12.9 km/h 98 % 0 in /  0.0 mm
21:47 48.4 °F /  9.1 °C 47.8 °F /  8.8 °C 30 in /  1016.8 hPa SW 3 mph /  4.8 km/h 8 mph /  12.9 km/h 98 % 0 in /  0.0 mm
21:52 48 °F /  8.9 °C 47.1 °F /  8.4 °C 30 in /  1016.8 hPa SW 3 mph /  4.8 km/h 8 mph /  12.9 km/h 97 % 0 in /  0.0 mm
21:57 47.8 °F /  8.8 °C 47.3 °F /  8.5 °C 30 in /  1016.8 hPa SW 2 mph /  3.2 km/h 5 mph /  8.0 km/h 98 % 0 in /  0.0 mm
22:02 47.8 °F /  8.8 °C 47.3 °F /  8.5 °C 30 in /  1016.8 hPa SSW 1 mph /  1.6 km/h 5 mph /  8.0 km/h 98 % 0 in /  0.0 mm
22:12 47.7 °F /  8.7 °C 47.1 °F /  8.4 °C 30 in /  1016.8 hPa SSW 2 mph /  3.2 km/h 3 mph /  4.8 km/h 98 % 0 in /  0.0 mm
22:17 47.7 °F /  8.7 °C 47.1 °F /  8.4 °C 30 in /  1017.2 hPa SW 4 mph /  6.4 km/h 4 mph /  6.4 km/h 98 % 0 in /  0.0 mm
22:22 47.7 °F /  8.7 °C 47.1 °F /  8.4 °C 30 in /  1016.8 hPa SW 2 mph /  3.2 km/h 5 mph /  8.0 km/h 98 % 0 in /  0.0 mm
22:32 47.7 °F /  8.7 °C 47.1 °F /  8.4 °C 30 in /  1017.2 hPa SW 3 mph /  4.8 km/h 6 mph /  9.7 km/h 98 % 0 in /  0.0 mm
22:37 47.8 °F /  8.8 °C 47.3 °F /  8.5 °C 30 in /  1017.2 hPa SW 4 mph /  6.4 km/h 6 mph /  9.7 km/h 98 % 0 in /  0.0 mm
22:42 47.7 °F /  8.7 °C 47.1 °F /  8.4 °C 30 in /  1016.8 hPa SW 5 mph /  8.0 km/h 6 mph /  9.7 km/h 98 % 0 in /  0.0 mm
22:47 47.7 °F /  8.7 °C 47.1 °F /  8.4 °C 30 in /  1016.8 hPa SW 2 mph /  3.2 km/h 6 mph /  9.7 km/h 98 % 0 in /  0.0 mm
22:52 47.5 °F /  8.6 °C 46.9 °F /  8.3 °C 30 in /  1016.8 hPa SW 4 mph /  6.4 km/h 6 mph /  9.7 km/h 98 % 0 in /  0.0 mm
22:57 47.8 °F /  8.8 °C 47.3 °F /  8.5 °C 30 in /  1016.8 hPa SW 4 mph /  6.4 km/h 7 mph /  11.3 km/h 98 % 0 in /  0.0 mm
23:02 47.8 °F /  8.8 °C 47.3 °F /  8.5 °C 30 in /  1016.8 hPa SSW 4 mph /  6.4 km/h 5 mph /  8.0 km/h 98 % 0.01 in /  0.3 mm
23:12 47.7 °F /  8.7 °C 47.1 °F /  8.4 °C 30 in /  1016.8 hPa SW 4 mph /  6.4 km/h 8 mph /  12.9 km/h 98 % 0.02 in /  0.5 mm
23:17 47.7 °F /  8.7 °C 47.1 °F /  8.4 °C 30 in /  1016.8 hPa SW 5 mph /  8.0 km/h 8 mph /  12.9 km/h 98 % 0.03 in /  0.8 mm
23:22 47.7 °F /  8.7 °C 47.1 °F /  8.4 °C 30 in /  1016.8 hPa South 3 mph /  4.8 km/h 8 mph /  12.9 km/h 98 % 0.03 in /  0.8 mm
23:32 47.7 °F /  8.7 °C 47.1 °F /  8.4 °C 30 in /  1016.8 hPa SW 6 mph /  9.7 km/h 8 mph /  12.9 km/h 98 % 0.03 in /  0.8 mm
23:37 47.7 °F /  8.7 °C 47.1 °F /  8.4 °C 30 in /  1016.8 hPa SW 3 mph /  4.8 km/h 8 mph /  12.9 km/h 98 % 0.04 in /  1.0 mm
23:42 47.7 °F /  8.7 °C 47.1 °F /  8.4 °C 30 in /  1016.8 hPa SSW 8 mph /  12.9 km/h 8 mph /  12.9 km/h 98 % 0.04 in /  1.0 mm
23:47 47.7 °F /  8.7 °C 47.1 °F /  8.4 °C 30 in /  1016.8 hPa SW 7 mph /  11.3 km/h 9 mph /  14.5 km/h 98 % 0.05 in /  1.3 mm
23:52 47.8 °F /  8.8 °C 47.3 °F /  8.5 °C 30 in /  1016.8 hPa SSW 3 mph /  4.8 km/h 9 mph /  14.5 km/h 98 % 0.05 in /  1.3 mm
23:57 47.8 °F /  8.8 °C 47.3 °F /  8.5 °C 30 in /  1016.8 hPa SW 6 mph /  9.7 km/h 10 mph /  16.1 km/h 98 % 0.05 in /  1.3 mm
Meteo18
Compliments of Weather Underground - 4 mb

Script developed by  Jim McMurry - jmcmurry@mwt.net Adapted for the template by  Wim van der Kuil - Leuven-Template.eu

You find our weather info also at:

European Weather Network

Weather Underground

Equipment we use:

Weather-station
Davis Vue

Weather-program
Meteohub

Weather-server
Raspberry PI 2 B+

Provider
1 and 1

Davis Vue

Meteohub

Raspberry PI 2 B+

1 and 1